createdAt,value
2019-02-19T00:01:57.810Z,7.69
2019-02-19T00:04:27.910Z,7.69
2019-02-19T00:06:57.916Z,7.69
2019-02-19T00:09:27.994Z,7.75
2019-02-19T00:11:58.018Z,7.69
2019-02-19T00:14:28.002Z,7.75
2019-02-19T00:16:58.066Z,7.76
2019-02-19T00:19:28.052Z,7.71
2019-02-19T00:21:58.057Z,7.71
2019-02-19T00:24:28.048Z,7.76
2019-02-19T00:26:58.048Z,7.72
2019-02-19T00:29:28.012Z,7.79
2019-02-19T00:31:58.033Z,7.70
2019-02-19T00:34:28.029Z,7.69
2019-02-19T00:36:58.020Z,7.76
2019-02-19T00:39:28.024Z,7.77
2019-02-19T00:41:57.990Z,7.72
2019-02-19T00:44:27.996Z,7.75
2019-02-19T00:46:57.974Z,7.70
2019-02-19T00:49:27.968Z,7.68
2019-02-19T00:51:57.986Z,7.68
2019-02-19T00:54:28.066Z,7.74
2019-02-19T00:56:58.038Z,7.67
2019-02-19T00:59:28.048Z,7.71
2019-02-19T01:01:58.036Z,7.67
2019-02-19T01:04:28.028Z,7.71
2019-02-19T01:06:58.192Z,7.68
2019-02-19T01:09:28.882Z,7.59
2019-02-19T01:11:58.942Z,7.68
2019-02-19T01:14:29.045Z,7.54
2019-02-19T01:16:59.034Z,7.51
2019-02-19T01:19:29.218Z,7.40
2019-02-19T01:21:59.278Z,7.44
2019-02-19T01:24:29.294Z,7.44
2019-02-19T01:26:59.381Z,7.45
2019-02-19T01:29:29.408Z,7.45
2019-02-19T01:31:59.484Z,7.47
2019-02-19T01:34:29.527Z,7.41
2019-02-19T01:37:00.434Z,7.41
2019-02-19T01:39:30.514Z,7.44
2019-02-19T01:42:00.577Z,7.49
2019-02-19T01:44:30.644Z,7.54
2019-02-19T01:47:00.728Z,7.51
2019-02-19T01:49:30.772Z,7.59
2019-02-19T01:52:00.838Z,7.58
2019-02-19T01:54:30.876Z,7.50
2019-02-19T01:57:01.248Z,7.48
2019-02-19T01:59:31.487Z,7.47
2019-02-19T02:02:01.554Z,7.54
2019-02-19T02:04:31.604Z,7.48
2019-02-19T02:07:01.685Z,7.52
2019-02-19T02:09:33.025Z,7.49
2019-02-19T02:12:03.293Z,7.50
2019-02-19T02:14:33.357Z,7.57
2019-02-19T02:17:03.437Z,7.60
2019-02-19T02:19:33.405Z,7.55
2019-02-19T02:22:03.419Z,7.57
2019-02-19T02:24:33.400Z,7.61
2019-02-19T02:27:03.429Z,7.60
2019-02-19T02:29:33.577Z,7.71
2019-02-19T02:32:03.570Z,7.55
2019-02-19T02:34:33.539Z,7.51
2019-02-19T02:37:03.619Z,7.61
2019-02-19T02:39:33.591Z,7.57
2019-02-19T02:42:03.681Z,7.57
2019-02-19T02:44:33.646Z,7.59
2019-02-19T02:47:03.748Z,7.59
2019-02-19T02:49:33.779Z,7.55
2019-02-19T02:52:03.808Z,7.51
2019-02-19T02:54:34.049Z,7.57
2019-02-19T02:57:04.069Z,7.56
2019-02-19T02:59:34.095Z,7.59
2019-02-19T03:02:04.133Z,7.62
2019-02-19T03:04:34.121Z,7.60
2019-02-19T03:07:23.155Z,7.59
2019-02-19T03:09:53.209Z,7.65
2019-02-19T03:12:23.261Z,7.52
2019-02-19T03:14:53.332Z,7.60
2019-02-19T03:17:23.357Z,7.66
2019-02-19T03:19:53.359Z,7.47
2019-02-19T03:22:23.402Z,7.59
2019-02-19T03:24:53.495Z,7.55
2019-02-19T03:27:23.546Z,7.60
2019-02-19T03:29:53.603Z,7.70
2019-02-19T03:32:23.647Z,7.66
2019-02-19T03:34:53.756Z,7.66
2019-02-19T03:37:23.779Z,7.69
2019-02-19T03:39:53.849Z,7.68
2019-02-19T03:42:24.186Z,7.73
2019-02-19T03:44:54.225Z,7.70
2019-02-19T03:47:24.263Z,7.67
2019-02-19T03:49:54.332Z,7.75
2019-02-19T03:52:24.334Z,7.64
2019-02-19T03:54:54.427Z,7.69
2019-02-19T03:57:24.393Z,7.64
2019-02-19T03:59:54.859Z,7.57
2019-02-19T04:02:24.907Z,7.62
2019-02-19T04:04:54.962Z,7.64
2019-02-19T04:07:25.046Z,7.56
2019-02-19T04:09:55.085Z,7.56
2019-02-19T04:12:25.169Z,7.55
2019-02-19T04:14:55.213Z,7.51
2019-02-19T04:17:25.286Z,7.57
2019-02-19T04:19:55.285Z,7.58
2019-02-19T04:22:25.367Z,7.63
2019-02-19T04:24:55.464Z,7.57
2019-02-19T04:27:25.513Z,7.64
2019-02-19T04:29:55.506Z,7.58
2019-02-19T04:32:25.599Z,7.57
2019-02-19T04:34:55.643Z,7.59
2019-02-19T04:37:25.634Z,7.61
2019-02-19T04:39:55.619Z,7.61
2019-02-19T04:42:25.649Z,7.60
2019-02-19T04:44:55.631Z,7.64
2019-02-19T04:47:25.670Z,7.67
2019-02-19T04:49:55.662Z,7.77
2019-02-19T04:52:25.687Z,7.72
2019-02-19T04:54:55.682Z,7.78
2019-02-19T04:57:25.670Z,7.73
2019-02-19T04:59:55.676Z,7.81
2019-02-19T05:02:25.652Z,7.82
2019-02-19T05:04:55.668Z,7.90
2019-02-19T05:07:25.652Z,7.82
2019-02-19T05:09:55.658Z,7.90
2019-02-19T05:12:25.651Z,8.00
2019-02-19T05:14:55.633Z,7.94
2019-02-19T05:17:25.606Z,7.92
2019-02-19T05:19:55.613Z,7.99
2019-02-19T05:22:25.607Z,7.98
2019-02-19T05:24:55.606Z,7.92
2019-02-19T05:27:25.604Z,7.89
2019-02-19T05:29:55.629Z,7.87
2019-02-19T05:32:25.611Z,7.93
2019-02-19T05:34:55.608Z,7.81
2019-02-19T05:37:25.588Z,7.86
2019-02-19T05:39:55.592Z,7.90
2019-02-19T05:42:25.591Z,7.87
2019-02-19T05:44:55.608Z,7.97
2019-02-19T05:47:25.568Z,7.90
2019-02-19T05:49:55.579Z,7.93
2019-02-19T05:52:25.592Z,7.95
2019-02-19T05:54:55.625Z,7.89
2019-02-19T05:57:26.197Z,7.89
2019-02-19T05:59:56.209Z,7.84
2019-02-19T06:02:26.220Z,7.85
2019-02-19T06:04:56.252Z,7.78
2019-02-19T06:07:26.288Z,7.79
2019-02-19T06:09:56.279Z,7.83
2019-02-19T06:12:26.296Z,7.71
2019-02-19T06:14:56.318Z,7.87
2019-02-19T06:17:26.322Z,7.79
2019-02-19T06:19:56.346Z,7.86
2019-02-19T06:22:26.390Z,7.80
2019-02-19T06:24:56.374Z,7.87
2019-02-19T06:27:26.385Z,7.86
2019-02-19T06:29:56.393Z,7.80
2019-02-19T06:32:26.421Z,7.75
2019-02-19T06:34:56.446Z,7.87
2019-02-19T06:37:26.467Z,7.87
2019-02-19T06:39:56.501Z,7.74
2019-02-19T06:42:26.560Z,7.70
2019-02-19T06:44:56.590Z,7.73
2019-02-19T06:47:26.587Z,7.74
2019-02-19T06:49:56.604Z,7.77
2019-02-19T06:52:26.642Z,7.76
2019-02-19T06:54:56.642Z,7.80
2019-02-19T06:57:26.698Z,7.72
2019-02-19T06:59:56.702Z,7.85
2019-02-19T07:02:48.492Z,7.87
2019-02-19T07:05:23.433Z,7.70
2019-02-19T07:07:55.064Z,7.67
2019-02-19T07:10:30.428Z,7.73
2019-02-19T07:13:07.616Z,7.68
2019-02-19T07:15:39.315Z,7.68
2019-02-19T07:18:09.348Z,7.72
2019-02-19T07:20:39.366Z,7.79
2019-02-19T07:23:09.400Z,7.75
2019-02-19T07:25:39.460Z,7.78
2019-02-19T07:28:09.566Z,7.74
2019-02-19T07:30:39.571Z,7.73
2019-02-19T07:33:09.629Z,7.72
2019-02-19T07:35:39.650Z,7.85
2019-02-19T07:38:09.734Z,7.79
2019-02-19T07:40:39.797Z,7.80
2019-02-19T07:43:09.809Z,7.82
2019-02-19T07:45:39.823Z,7.84
2019-02-19T07:48:09.851Z,7.77
2019-02-19T07:50:39.893Z,7.80
2019-02-19T07:53:09.909Z,7.81
2019-02-19T07:55:39.958Z,7.98
2019-02-19T07:58:09.952Z,7.84
2019-02-19T08:00:39.991Z,7.81
2019-02-19T08:03:10.958Z,7.88
2019-02-19T08:05:40.995Z,7.89
2019-02-19T08:08:11.001Z,7.89
2019-02-19T08:10:41.057Z,7.92
2019-02-19T08:13:11.096Z,7.88
2019-02-19T08:15:41.151Z,7.91
2019-02-19T08:18:11.191Z,7.96
2019-02-19T08:20:41.384Z,7.90
2019-02-19T08:23:11.563Z,7.97
2019-02-19T08:25:41.580Z,8.03
2019-02-19T08:28:11.577Z,8.07
2019-02-19T08:30:41.697Z,8.02
2019-02-19T08:33:11.776Z,8.18
2019-02-19T08:35:41.747Z,8.24
2019-02-19T08:38:11.763Z,8.25
2019-02-19T08:40:41.799Z,8.24
2019-02-19T08:43:11.837Z,8.20
2019-02-19T08:45:41.845Z,8.32
2019-02-19T08:48:11.902Z,8.35
2019-02-19T08:50:43.740Z,8.44
2019-02-19T08:53:13.798Z,8.44
2019-02-19T08:55:43.803Z,8.53
2019-02-19T08:58:13.855Z,8.56
2019-02-19T09:00:43.896Z,8.53
2019-02-19T09:03:13.937Z,8.49
2019-02-19T09:05:43.940Z,8.42
2019-02-19T09:08:13.981Z,8.47
2019-02-19T09:10:44.011Z,8.52
2019-02-19T09:13:14.009Z,8.48
2019-02-19T09:15:44.105Z,8.54
2019-02-19T09:18:14.135Z,8.52
2019-02-19T09:20:44.227Z,8.49
2019-02-19T09:23:14.267Z,8.63
2019-02-19T09:25:44.388Z,8.65
2019-02-19T09:28:14.419Z,8.79
2019-02-19T09:30:44.586Z,8.74
2019-02-19T09:33:14.682Z,8.69
2019-02-19T09:35:44.763Z,8.76
2019-02-19T09:38:14.833Z,8.68
2019-02-19T09:40:44.840Z,8.68
2019-02-19T09:43:14.989Z,8.79
2019-02-19T09:45:44.990Z,8.72
2019-02-19T09:48:15.023Z,8.65
2019-02-19T09:50:45.023Z,8.77
2019-02-19T09:53:15.121Z,8.72
2019-02-19T09:55:45.108Z,8.75
2019-02-19T09:58:15.153Z,8.79
2019-02-19T10:00:45.168Z,8.75
2019-02-19T10:03:15.570Z,8.89
2019-02-19T10:05:45.625Z,8.92
2019-02-19T10:08:15.662Z,8.97
2019-02-19T10:10:45.703Z,9.02
2019-02-19T10:13:15.812Z,9.05
2019-02-19T10:15:48.346Z,9.05
2019-02-19T10:18:18.368Z,9.07
2019-02-19T10:20:48.394Z,9.18
2019-02-19T10:23:18.437Z,9.16
2019-02-19T10:25:48.475Z,9.23
2019-02-19T10:28:18.664Z,9.33
2019-02-19T10:30:48.679Z,9.37
2019-02-19T10:33:18.793Z,9.44
2019-02-19T10:35:48.830Z,9.44
2019-02-19T10:38:18.832Z,9.28
2019-02-19T10:40:50.981Z,9.26
2019-02-19T10:43:21.026Z,9.32
2019-02-19T10:45:51.196Z,9.35
2019-02-19T10:48:21.392Z,9.37
2019-02-19T10:50:51.498Z,9.33
2019-02-19T10:53:22.844Z,9.42
2019-02-19T10:55:53.979Z,9.44
2019-02-19T10:58:27.823Z,9.55
2019-02-19T11:01:02.300Z,9.52
2019-02-19T11:03:32.417Z,9.63
2019-02-19T11:06:21.907Z,9.58
2019-02-19T11:08:53.881Z,9.72
2019-02-19T11:11:26.269Z,9.87
2019-02-19T11:14:00.274Z,9.85
2019-02-19T11:16:31.759Z,9.73
2019-02-19T11:19:01.770Z,9.78
2019-02-19T11:21:31.884Z,9.73
2019-02-19T11:24:01.900Z,9.91
2019-02-19T11:26:31.958Z,9.85
2019-02-19T11:29:02.007Z,9.81
2019-02-19T11:31:32.021Z,9.84
2019-02-19T11:34:02.060Z,9.77
2019-02-19T11:36:32.084Z,9.75
2019-02-19T11:39:02.127Z,9.81
2019-02-19T11:41:32.171Z,9.89
2019-02-19T11:44:02.202Z,9.98
2019-02-19T11:46:32.230Z,10.06
2019-02-19T11:49:02.294Z,10.13
2019-02-19T11:51:32.360Z,10.12
2019-02-19T11:54:02.426Z,10.07
2019-02-19T11:56:32.476Z,9.96
2019-02-19T11:59:02.507Z,10.14
2019-02-19T12:01:32.526Z,10.16
2019-02-19T12:04:02.902Z,10.23
2019-02-19T12:06:32.923Z,10.11
2019-02-19T12:09:02.958Z,10.17
2019-02-19T12:11:32.981Z,10.20
2019-02-19T12:14:03.218Z,10.31
2019-02-19T12:16:33.294Z,10.43
2019-02-19T12:19:03.335Z,10.48
2019-02-19T12:21:33.332Z,10.54
2019-02-19T12:24:03.401Z,10.40
2019-02-19T12:26:33.601Z,10.53
2019-02-19T12:29:05.404Z,10.46
2019-02-19T12:31:35.452Z,10.51
2019-02-19T12:34:05.465Z,10.63
2019-02-19T12:36:35.557Z,10.66
2019-02-19T12:39:05.806Z,10.72
2019-02-19T12:41:35.868Z,10.50
2019-02-19T12:44:05.926Z,10.30
2019-02-19T12:46:36.049Z,10.31
2019-02-19T12:49:06.095Z,10.30
2019-02-19T12:51:36.186Z,10.46
2019-02-19T12:54:06.212Z,10.45
2019-02-19T12:56:36.317Z,10.44
2019-02-19T12:59:06.336Z,10.27
2019-02-19T13:01:36.389Z,10.44
2019-02-19T13:04:06.456Z,10.36
2019-02-19T13:06:36.619Z,10.42
2019-02-19T13:09:10.940Z,10.36
2019-02-19T13:11:40.986Z,10.35
2019-02-19T13:14:11.041Z,10.44
2019-02-19T13:16:41.072Z,10.33
2019-02-19T13:19:11.156Z,10.37
2019-02-19T13:21:41.236Z,10.42
2019-02-19T13:24:11.257Z,10.50
2019-02-19T13:26:41.576Z,10.57
2019-02-19T13:29:11.598Z,10.51
2019-02-19T13:31:41.633Z,10.43
2019-02-19T13:34:11.689Z,10.32
2019-02-19T13:36:41.851Z,10.29
2019-02-19T13:39:12.121Z,10.36
2019-02-19T13:41:43.460Z,10.28
2019-02-19T13:44:13.641Z,10.30
2019-02-19T13:46:43.876Z,10.34
2019-02-19T13:49:14.139Z,10.44
2019-02-19T13:51:44.167Z,10.38
2019-02-19T13:54:27.908Z,10.43
2019-02-19T13:56:58.074Z,10.44
2019-02-19T13:59:28.217Z,10.45
2019-02-19T14:01:58.322Z,10.51
2019-02-19T14:04:28.428Z,10.44
2019-02-19T14:06:58.445Z,10.35
2019-02-19T14:09:30.365Z,10.29
2019-02-19T14:12:00.337Z,10.30
2019-02-19T14:14:52.999Z,10.28
2019-02-19T14:17:23.903Z,10.33
2019-02-19T14:20:18.650Z,10.25
2019-02-19T14:22:57.579Z,10.20
2019-02-19T14:25:43.495Z,10.17
2019-02-19T14:28:38.506Z,10.24
2019-02-19T14:31:36.595Z,10.32
2019-02-19T14:34:24.368Z,10.34
2019-02-19T14:37:12.941Z,10.27
2019-02-19T14:40:11.229Z,10.37
2019-02-19T14:43:12.477Z,10.18
2019-02-19T14:46:00.565Z,10.29
2019-02-19T14:48:53.718Z,10.33
2019-02-19T14:51:48.923Z,10.32
2019-02-19T14:54:37.183Z,10.34
2019-02-19T14:57:32.377Z,10.17
2019-02-19T15:00:19.233Z,10.22
2019-02-19T15:03:17.270Z,10.34
2019-02-19T15:06:00.940Z,10.26
2019-02-19T15:08:59.021Z,10.26
2019-02-19T15:11:44.687Z,10.28
2019-02-19T15:14:39.720Z,10.20
2019-02-19T15:17:28.350Z,10.13
2019-02-19T15:20:24.653Z,10.10
2019-02-19T15:23:23.721Z,9.98
2019-02-19T15:26:21.673Z,9.98
2019-02-19T15:29:09.407Z,9.95
2019-02-19T15:31:54.627Z,9.79
2019-02-19T15:34:42.606Z,9.60
2019-02-19T15:37:30.211Z,9.36
2019-02-19T15:40:22.823Z,9.17
2019-02-19T15:43:17.653Z,9.28
2019-02-19T15:46:08.672Z,9.19
2019-02-19T15:48:58.286Z,9.35
2019-02-19T15:51:53.226Z,9.40
2019-02-19T15:54:42.195Z,9.32
2019-02-19T15:57:29.815Z,9.48
2019-02-19T16:00:17.682Z,9.29
2019-02-19T16:02:53.254Z,9.39
2019-02-19T16:05:34.965Z,9.38
2019-02-19T16:08:26.775Z,9.28
2019-02-19T16:11:07.803Z,9.18
2019-02-19T16:13:56.812Z,9.32
2019-02-19T16:16:44.731Z,9.21
2019-02-19T16:19:37.215Z,9.20
2019-02-19T16:22:38.374Z,9.27
2019-02-19T16:25:20.778Z,9.24
2019-02-19T16:28:08.845Z,9.18
2019-02-19T16:31:07.057Z,9.20
2019-02-19T16:33:50.546Z,9.23
2019-02-19T16:36:29.679Z,9.12
2019-02-19T16:39:20.587Z,9.08
2019-02-19T16:42:09.561Z,9.01
2019-02-19T16:45:01.408Z,9.12
2019-02-19T16:47:44.218Z,9.04
2019-02-19T16:50:39.102Z,9.21
2019-02-19T16:53:15.047Z,9.17
2019-02-19T16:56:16.394Z,9.14
2019-02-19T16:59:15.320Z,9.16
2019-02-19T17:02:01.213Z,9.18
2019-02-19T17:04:48.115Z,9.02
2019-02-19T17:07:39.959Z,9.04
2019-02-19T17:10:18.406Z,9.05
2019-02-19T17:13:05.567Z,9.04
2019-02-19T17:15:53.254Z,8.97
2019-02-19T17:18:54.390Z,9.07
2019-02-19T17:21:40.750Z,8.95
2019-02-19T17:24:29.771Z,9.06
2019-02-19T17:27:30.762Z,8.97
2019-02-19T17:30:08.442Z,8.99
2019-02-19T17:32:57.463Z,9.02
2019-02-19T17:35:38.394Z,8.91
2019-02-19T17:38:39.291Z,8.87
2019-02-19T17:41:16.748Z,9.05
2019-02-19T17:44:04.908Z,8.78
2019-02-19T17:46:59.865Z,8.85
2019-02-19T17:49:51.229Z,8.83
2019-02-19T17:52:41.141Z,8.97
2019-02-19T17:55:30.751Z,8.75
2019-02-19T17:58:15.968Z,8.76
2019-02-19T18:00:52.308Z,8.72
2019-02-19T18:03:30.235Z,8.74
2019-02-19T18:06:15.370Z,8.81
2019-02-19T18:08:56.432Z,8.82
2019-02-19T18:11:35.811Z,8.71
2019-02-19T18:14:23.850Z,8.74
2019-02-19T18:17:16.119Z,8.68
2019-02-19T18:19:46.149Z,8.69
2019-02-19T18:22:16.969Z,8.71
2019-02-19T18:24:47.367Z,8.69
2019-02-19T18:27:17.429Z,8.82
2019-02-19T18:29:48.442Z,8.80
2019-02-19T18:32:18.565Z,8.64
2019-02-19T18:34:49.208Z,8.65
2019-02-19T18:37:19.232Z,8.72
2019-02-19T18:39:50.909Z,8.84
2019-02-19T18:42:21.189Z,8.77
2019-02-19T18:44:56.807Z,8.83
2019-02-19T18:47:26.542Z,8.79
2019-02-19T18:49:57.040Z,8.80
2019-02-19T18:52:27.119Z,8.79
2019-02-19T18:54:57.207Z,8.76
2019-02-19T18:57:27.297Z,8.67
2019-02-19T18:59:57.406Z,8.71
2019-02-19T19:02:27.501Z,8.80
2019-02-19T19:04:57.566Z,8.74
2019-02-19T19:07:27.644Z,8.76
2019-02-19T19:09:57.689Z,8.88
2019-02-19T19:12:27.870Z,8.76
2019-02-19T19:14:57.915Z,8.66
2019-02-19T19:17:27.996Z,8.65
2019-02-19T19:19:58.044Z,8.71
2019-02-19T19:22:28.065Z,8.77
2019-02-19T19:24:58.091Z,8.88
2019-02-19T19:27:28.178Z,8.68
2019-02-19T19:29:58.231Z,8.69
2019-02-19T19:32:28.289Z,8.68
2019-02-19T19:34:58.458Z,8.72
2019-02-19T19:37:28.522Z,8.60
2019-02-19T19:39:58.570Z,8.61
2019-02-19T19:42:28.652Z,8.53
2019-02-19T19:44:58.708Z,8.50
2019-02-19T19:47:28.785Z,8.53
2019-02-19T19:49:58.896Z,8.57
2019-02-19T19:52:29.135Z,8.53
2019-02-19T19:54:59.311Z,8.57
2019-02-19T19:57:32.481Z,8.63
2019-02-19T20:00:02.549Z,8.64
2019-02-19T20:02:32.629Z,8.58
2019-02-19T20:05:02.718Z,8.66
2019-02-19T20:07:32.856Z,8.52
2019-02-19T20:10:02.908Z,8.56
2019-02-19T20:12:32.985Z,8.63
2019-02-19T20:15:03.046Z,8.61
2019-02-19T20:17:33.136Z,8.66
2019-02-19T20:20:03.306Z,8.49
2019-02-19T20:22:33.382Z,8.55
2019-02-19T20:25:06.217Z,8.57
2019-02-19T20:27:36.239Z,8.52
2019-02-19T20:30:07.013Z,8.52
2019-02-19T20:32:37.077Z,8.45
2019-02-19T20:35:08.063Z,8.44
2019-02-19T20:37:38.503Z,8.49
2019-02-19T20:40:08.708Z,8.49
2019-02-19T20:42:38.797Z,8.44
2019-02-19T20:45:08.988Z,8.44
2019-02-19T20:47:39.085Z,8.42
2019-02-19T20:50:09.608Z,8.54
2019-02-19T20:52:39.812Z,8.57
2019-02-19T20:55:10.000Z,8.50
2019-02-19T20:57:40.003Z,8.45
2019-02-19T21:00:13.663Z,8.46
2019-02-19T21:02:43.735Z,8.39
2019-02-19T21:05:14.035Z,8.48
2019-02-19T21:07:44.150Z,8.44
2019-02-19T21:10:15.732Z,8.55
2019-02-19T21:12:45.736Z,8.45
2019-02-19T21:15:15.817Z,8.48
2019-02-19T21:17:45.867Z,8.42
2019-02-19T21:20:16.031Z,8.50
2019-02-19T21:22:46.085Z,8.54
2019-02-19T21:25:16.175Z,8.42
2019-02-19T21:27:46.228Z,8.42
2019-02-19T21:30:16.321Z,8.44
2019-02-19T21:32:46.361Z,8.45
2019-02-19T21:35:16.482Z,8.46
2019-02-19T21:37:46.666Z,8.44
2019-02-19T21:40:16.731Z,8.47
2019-02-19T21:42:46.808Z,8.49
2019-02-19T21:45:16.829Z,8.53
2019-02-19T21:47:46.887Z,8.41
2019-02-19T21:50:16.954Z,8.42
2019-02-19T21:52:47.105Z,8.38
2019-02-19T21:55:17.120Z,8.36
2019-02-19T21:57:47.182Z,8.47
2019-02-19T22:00:17.291Z,8.39
2019-02-19T22:02:47.368Z,8.43
2019-02-19T22:05:17.500Z,8.45
2019-02-19T22:07:47.583Z,8.43
2019-02-19T22:10:17.771Z,8.44
2019-02-19T22:12:47.859Z,8.52
2019-02-19T22:15:17.888Z,8.49
2019-02-19T22:17:47.940Z,8.45
2019-02-19T22:20:35.684Z,8.50
2019-02-19T22:23:06.151Z,8.48
2019-02-19T22:25:36.195Z,8.63
2019-02-19T22:28:06.232Z,8.46
2019-02-19T22:30:36.264Z,8.50
2019-02-19T22:33:06.389Z,8.55
2019-02-19T22:35:36.410Z,8.40
2019-02-19T22:38:06.453Z,8.42
2019-02-19T22:40:36.498Z,8.37
2019-02-19T22:43:06.523Z,8.43
2019-02-19T22:45:36.643Z,8.42
2019-02-19T22:48:06.880Z,8.38
2019-02-19T22:50:37.069Z,8.41
2019-02-19T22:53:26.170Z,8.25
2019-02-19T22:56:07.572Z,8.32
2019-02-19T22:58:37.666Z,8.45
2019-02-19T23:01:17.465Z,8.41
2019-02-19T23:03:47.546Z,8.38
2019-02-19T23:06:17.614Z,8.41
2019-02-19T23:08:47.698Z,8.35
2019-02-19T23:11:17.818Z,8.30
2019-02-19T23:13:47.848Z,8.37
2019-02-19T23:16:17.874Z,8.46
2019-02-19T23:18:47.976Z,8.31
2019-02-19T23:21:18.100Z,8.37
2019-02-19T23:23:48.216Z,8.36
2019-02-19T23:26:18.251Z,8.35
2019-02-19T23:28:48.349Z,8.44
2019-02-19T23:31:18.468Z,8.37
2019-02-19T23:33:48.557Z,8.43
2019-02-19T23:36:37.540Z,8.39
2019-02-19T23:39:07.809Z,8.40
2019-02-19T23:41:37.844Z,8.28
2019-02-19T23:44:07.885Z,8.39
2019-02-19T23:46:37.912Z,8.41
2019-02-19T23:49:07.956Z,8.38
2019-02-19T23:51:38.022Z,8.36
2019-02-19T23:54:08.074Z,8.39
2019-02-19T23:56:38.474Z,8.41
2019-02-19T23:59:08.526Z,8.40
